• Join FlightAware (Why Join?)
  • Login
  • US Flag 
02:07PM EDT


 

Airport Tracker/Info


-or-


 

Live Flight TrackerFlight Track Log ✈ SWA378 ✈ 29-Apr-2013 ✈ KATL - KORF

Flight Track Log - Related Links

Times and Time Zones

All times are in EDT time to prevent confusion due to time zone crossing. See the SWA378 flight status page for this flight to view local times or setup timezone preferences in your user account.

Time Position Orientation Groundspeed Altitude Reporting Facility
EDT Latitude Longitude Course Direction KTS MPH feet Rate Location/Type
06:40PM 33.6167 -84.5000 101° East 192 221 3,100  Level Atlanta TRACON
06:41PM 33.6000 -84.5667 253° West 253 291 5,100 2,520 Climbing Atlanta TRACON
06:42PM 33.5333 -84.5833 192° South 282 325 7,900 2,460 Climbing Atlanta TRACON
06:44PM 33.4575 -84.4122 118° Southeast 275 316 13,300 2,640 Climbing Atlanta Center
06:45PM 33.4581 -84.2903 90° East 326 375 16,700 3,120 Climbing Atlanta Center
06:46PM 33.6527 -83.6495 101° East  Level FlightAware Approximate
06:46PM 33.4978 -84.1783 67° East 353 406 19,600  Level Atlanta Center
06:47PM 33.5458 -84.0636 63° Northeast 370 426 22,100 1,680 Climbing Atlanta Center
06:48PM 33.5958 -83.9442 63° Northeast 391 450 23,000 1,200 Climbing Atlanta Center
06:49PM 33.6269 -83.8142 74° East 397 457 24,500 1,680 Climbing Atlanta Center
06:50PM 33.6539 -83.6769 77° East 405 466 26,400 1,680 Climbing Atlanta Center
06:51PM 33.7014 -83.5419 67° East 427 491 27,900 1,500 Climbing Atlanta Center
06:52PM 33.7550 -83.4042 65° Northeast 444 511 29,500 1,500 Climbing Atlanta Center
06:53PM 33.8189 -83.2486 64° Northeast 449 517 31,000 1,500 Climbing Atlanta Center
06:54PM 33.8803 -83.1006 63° Northeast 472 543 32,600 1,560 Climbing Atlanta Center
06:55PM 33.9378 -82.9547 65° Northeast 472 543 34,200 1,500 Climbing Atlanta Center
06:56PM 33.9967 -82.8061 64° Northeast 483 556 35,700 1,320 Climbing Atlanta Center
06:57PM 34.0536 -82.6572 65° Northeast 488 562 36,900 1,260 Climbing Atlanta Center
06:58PM 34.1144 -82.5083 64° Northeast 481 554 38,300 1,020 Climbing Atlanta Center
06:59PM 34.1711 -82.3617 65° Northeast 476 548 39,000 300 Climbing Atlanta Center
07:00PM 34.2275 -82.2197 64° Northeast 476 548 39,000  Level Atlanta Center
07:01PM 34.2919 -82.0750 62° Northeast 476 548 39,000  Level Atlanta Center
07:02PM 34.3586 -81.9378 59° Northeast 476 548 39,000  Level Atlanta Center
07:03PM 34.4272 -81.8000 59° Northeast 476 548 39,000  Level Atlanta Center
07:04PM 34.4975 -81.6619 58° Northeast 476 548 39,000  Level Atlanta Center
07:05PM 34.5658 -81.5239 59° Northeast 476 548 39,000  Level Atlanta Center
07:06PM 34.6339 -81.3856 59° Northeast 476 548 39,000  Level Atlanta Center
07:07PM 34.6936 -81.2650 59° Northeast 464 534 39,000  Level Atlanta Center
07:08PM 34.7633 -81.1208 59° Northeast 475 547 39,000  Level Atlanta Center
07:09PM 34.8311 -80.9894 58° Northeast 475 547 39,000  Level Atlanta Center
07:10PM 34.9006 -80.8403 60° Northeast 493 567 39,000  Level Atlanta Center
07:11PM 34.9697 -80.6981 59° Northeast 493 567 39,000 -420 Level Atlanta Center
07:12PM 35.0367 -80.5558 60° Northeast 488 562 38,200 -660 Descending Atlanta Center
07:15PM 35.1919 -80.2303 60° Northeast 469 540 37,000 -420 Descending Washington Center
07:16PM 35.2600 -80.0867 60° Northeast 480 552 37,000  Level Washington Center
07:17PM 35.3253 -79.9581 58° Northeast 475 547 37,000  Level Washington Center
07:18PM 35.3928 -79.8189 59° Northeast 475 547 37,000  Level Washington Center
07:19PM 35.4483 -79.6664 66° East 470 541 37,000 -300 Level Washington Center
07:20PM 35.4931 -79.5081 71° East 480 552 36,500 -780 Descending Washington Center
07:21PM 35.5447 -79.3292 70° East 492 566 35,500 -960 Descending Washington Center
07:22PM 35.5647 -79.1592 82° East 498 573 34,600 -960 Descending Washington Center
07:23PM 35.5669 -79.0111 89° East 498 573 33,600 -960 Descending Washington Center
07:24PM 35.5967 -78.8386 78° East 498 573 32,700 -960 Descending Washington Center
07:25PM 35.6578 -78.6622 67° East 498 573 31,700 -840 Descending Washington Center
07:26PM 35.7139 -78.4956 67° East 513 590 31,000 -360 Descending Washington Center
07:27PM 35.7700 -78.3336 67° East 513 590 31,000 -540 Level Washington Center
07:28PM 35.8217 -78.1717 68° East 513 590 30,000 -1,680 Descending Washington Center
07:29PM 35.8750 -78.0169 67° East 506 582 27,700 -2,340 Descending Washington Center
07:30PM 35.9258 -77.8647 68° East 490 564 25,300 -2,280 Descending Washington Center
07:31PM 35.9744 -77.7147 68° East 478 550 23,100 -1,200 Descending Washington Center
07:32PM 36.0394 -77.5853 58° Northeast 455 524 23,000 -60 Descending Washington Center
07:33PM 36.1103 -77.4611 55° Northeast 444 511 23,000 -480 Level Washington Center
07:34PM 36.1681 -77.3519 57° Northeast 426 490 22,100 -1,440 Descending Washington Center
07:35PM 36.2303 -77.2322 57° Northeast 421 484 20,100 -2,220 Descending Washington Center
07:35PM 36.2603 -77.1814 54° Northeast 411 473 19,200 -1,980 Descending Washington Center
07:36PM 36.2925 -77.1097 61° Northeast 416 479 18,100 -1,860 Descending Washington Center
07:36PM 36.3308 -77.0514 51° Northeast 393 452 17,000 -1,980 Descending Washington Center
07:37PM 36.3522 -77.0028 61° Northeast 396 456 16,200 -2,160 Descending Washington Center
07:37PM 36.3756 -76.9592 56° Northeast 378 435 15,300 -1,800 Descending Washington Center
07:38PM 36.4119 -76.8953 55° Northeast 385 443 14,400 -2,220 Descending Washington Center
07:38PM 36.4394 -76.8569 48° Northeast 364 419 13,100 -3,000 Descending Washington Center
07:39PM 36.4733 -76.7956 56° Northeast 373 429 11,400 -2,700 Descending Washington Center
07:39PM 36.5031 -76.7494 51° Northeast 372 428 10,400 -1,320 Descending Washington Center
07:40PM 36.5328 -76.6958 55° Northeast 368 423 10,100 -1,020 Descending Washington Center
07:40PM 36.5603 -76.6547 50° Northeast 299 344 9,300 -1,620 Descending Washington Center
07:41PM 36.5836 -76.6111 56° Northeast 338 389 8,500 -1,800 Descending Washington Center
07:41PM 36.6131 -76.5650 51° Northeast 300 345 7,500 -1,140 Descending Washington Center
07:42PM 36.6322 -76.5314 55° Northeast 308 354 7,400 -720 Descending Washington Center
07:42PM 36.6492 -76.5033 53° Northeast 248 285 6,900 -1,500 Descending Washington Center
07:43PM 36.6725 -76.4619 55° Northeast 276 318 5,900 -2,100 Descending Washington Center
07:43PM 36.6936 -76.4286 52° Northeast 252 290 4,800 -1,920 Descending Washington Center
07:44PM 36.7147 -76.3925 54° Northeast 259 298 4,100 -1,320 Descending Washington Center
07:44PM 36.7314 -76.3669 51° Northeast 199 229 3,500 -1,020 Descending Washington Center
07:45PM 36.7503 -76.3411 48° Northeast 223 257 3,100 -1,020 Descending Washington Center
07:45PM 36.7692 -76.3256 33° Northeast 178 205 2,500 -780 Descending Washington Center
07:46PM 36.8069 -76.2897 37° Northeast 166 191 2,000 -540 Descending Washington Center